Current Weather

Robert Gray Aaf

Fort Hood/Killeen, Texas (KGRK)

Report from: Monday, September 26, 2022 7:55 PM CDT
Current time: Monday, September 26, 2022 9:21 PM CDT

Nearby weather
Weather history
Weather forecast

Temperature25.8°C (78.4°F)
Dew point3.1°C (37.6°F)
Winds 9 kts (4.6 m/s, 10.4 mph) Northeast (50°)
Visibility9 mi. (14.5 km)
Clouds Sky clear
Altimeter30.05 in.Hg (1018 mB)
Relative humidity23 %
Density altitude1,219 ft. (372 m)
Sea-level pressure101.7 kPa (1017 mB, 30.02 in.Hg)
Remarks Fully automated report
Automated weather observing station with precipitation discriminator
Flight conditions Visual Meteorological Conditions
Raw dataKGRK 270055Z AUTO 05009KT 9SM CLR 26/03 A3005 RMK AO2 SLP166 T02580031
An unhandled exception has occurred. See browser dev tools for details. Reload 🗙